Time;durP1;ratioP1;P1;durP2;ratioP2;P2;SDS_P1;SDS_P2;PMS_P1;PMS_P2;Temp;Humidity;BMP_temperature;BMP_pressure;BME280_temperature;BME280_humidity;BME280_pressure;Samples;Min_cycle;Max_cycle;Signal;HPM_P1;HPM_P2
2023/04/27 00:02:16;;;;;;;32.40;13.20;;;;;;;;;;136599;1286;22421;-78
2023/04/27 00:05:17;;;;;;;129.30;18.70;;;;;;;;;;136567;1286;22049;-77
2023/04/27 00:08:18;;;;;;;44.70;14.20;;;;;;;;;;136582;1286;22094;-78
2023/04/27 00:11:20;;;;;;;23.70;11.70;;;;;;;;;;136581;1286;22119;-78
2023/04/27 00:16:58;;;;;;;31.50;13.10;;;;;;;;;;132970;1311;545175;-77
2023/04/27 00:19:59;;;;;;;32.20;12.80;;;;;;;;;;135758;1285;22550;-77
2023/04/27 00:23:00;;;;;;;24.50;12.50;;;;;;;;;;136164;1285;24187;-79
2023/04/27 00:26:01;;;;;;;28.60;14.00;;;;;;;;;;136334;1285;22282;-79
2023/04/27 00:29:02;;;;;;;27.10;13.30;;;;;;;;;;135889;1283;110119;-79
2023/04/27 00:32:07;;;;;;;58.00;14.60;;;;;;;;;;136574;1278;24237;-78
2023/04/27 00:35:08;;;;;;;56.70;14.70;;;;;;;;;;137301;1278;22253;-78
2023/04/27 00:38:09;;;;;;;36.00;14.00;;;;;;;;;;136712;1278;22568;-79
2023/04/27 00:41:10;;;;;;;26.60;12.70;;;;;;;;;;136641;1278;22551;-78
2023/04/27 00:44:11;;;;;;;31.50;13.50;;;;;;;;;;137159;1278;22690;-78
2023/04/27 00:47:13;;;;;;;28.80;14.30;;;;;;;;;;137175;1278;22588;-78
2023/04/27 00:50:14;;;;;;;25.20;13.40;;;;;;;;;;136943;1278;22235;-78
2023/04/27 00:53:15;;;;;;;29.00;14.30;;;;;;;;;;137248;1278;22170;-79
2023/04/27 00:56:16;;;;;;;24.30;14.00;;;;;;;;;;137227;1278;22219;-79
2023/04/27 00:59:17;;;;;;;32.10;14.10;;;;;;;;;;136916;1278;22279;-79
2023/04/27 01:02:18;;;;;;;31.10;13.90;;;;;;;;;;137267;1278;22109;-78
2023/04/27 01:05:19;;;;;;;25.50;12.80;;;;;;;;;;137229;1278;22307;-79
2023/04/27 01:08:20;;;;;;;25.80;12.90;;;;;;;;;;136583;1278;22249;-79
2023/04/27 01:11:22;;;;;;;27.90;12.50;;;;;;;;;;136379;1278;22626;-79
2023/04/27 01:14:23;;;;;;;27.80;14.00;;;;;;;;;;137226;1278;22111;-78
2023/04/27 01:17:25;;;;;;;26.30;14.40;;;;;;;;;;136531;1278;22467;-78
2023/04/27 01:20:29;;;;;;;27.20;13.10;;;;;;;;;;136544;1278;22540;-79
2023/04/27 01:23:30;;;;;;;29.60;12.90;;;;;;;;;;136926;1278;22527;-79
2023/04/27 01:26:31;;;;;;;24.30;14.10;;;;;;;;;;136738;1279;22225;-78
2023/04/27 01:29:32;;;;;;;33.40;14.60;;;;;;;;;;136530;1279;22502;-77
2023/04/27 01:32:35;;;;;;;25.30;12.40;;;;;;;;;;136782;1276;22963;-78
2023/04/27 01:35:37;;;;;;;23.80;11.80;;;;;;;;;;137184;1276;22209;-78
2023/04/27 01:38:38;;;;;;;22.40;11.90;;;;;;;;;;136814;1275;22913;-77
2023/04/27 01:41:39;;;;;;;26.20;12.50;;;;;;;;;;136869;1275;22574;-77
2023/04/27 01:44:40;;;;;;;24.10;12.80;;;;;;;;;;137349;1276;22938;-78
2023/04/27 01:47:41;;;;;;;23.90;12.10;;;;;;;;;;136788;1275;22622;-79
2023/04/27 01:50:42;;;;;;;458.30;39.30;;;;;;;;;;136865;1275;22200;-77
2023/04/27 01:53:43;;;;;;;472.70;34.90;;;;;;;;;;137327;1276;22540;-81
2023/04/27 01:56:47;;;;;;;61.30;15.60;;;;;;;;;;136860;1276;22472;-77
2023/04/27 01:59:48;;;;;;;27.40;12.30;;;;;;;;;;136824;1275;22961;-77
2023/04/27 02:02:49;;;;;;;35.20;13.20;;;;;;;;;;137061;1276;22540;-81
2023/04/27 02:05:51;;;;;;;166.30;22.60;;;;;;;;;;137110;1276;23029;-78
2023/04/27 02:08:54;;;;;;;68.70;14.50;;;;;;;;;;136796;1276;22252;-78
2023/04/27 02:11:55;;;;;;;31.50;13.50;;;;;;;;;;136882;1276;22579;-78
2023/04/27 02:14:56;;;;;;;24.60;11.30;;;;;;;;;;137257;1275;22261;-77
2023/04/27 02:17:57;;;;;;;239.10;30.60;;;;;;;;;;136863;1275;22304;-79
2023/04/27 02:20:58;;;;;;;260.60;30.30;;;;;;;;;;136835;1275;22185;-79
2023/04/27 02:24:00;;;;;;;73.40;14.50;;;;;;;;;;137327;1276;22249;-79
2023/04/27 02:27:04;;;;;;;56.70;14.60;;;;;;;;;;136903;1275;22427;-76
2023/04/27 02:30:05;;;;;;;32.60;11.60;;;;;;;;;;136891;1275;22190;-77
2023/04/27 02:33:06;;;;;;;88.20;15.50;;;;;;;;;;137111;1276;23220;-80
2023/04/27 02:36:07;;;;;;;28.00;11.30;;;;;;;;;;137118;1275;22290;-77
2023/04/27 02:39:08;;;;;;;27.30;10.50;;;;;;;;;;136897;1275;22440;-77
2023/04/27 02:42:09;;;;;;;18.60;10.90;;;;;;;;;;136870;1276;22643;-77
2023/04/27 02:45:10;;;;;;;81.50;14.00;;;;;;;;;;137231;1275;22294;-77
2023/04/27 02:48:11;;;;;;;26.20;11.30;;;;;;;;;;136995;1275;22147;-78
2023/04/27 02:51:12;;;;;;;23.90;10.10;;;;;;;;;;136878;1275;22984;-77
2023/04/27 02:54:13;;;;;;;25.30;10.90;;;;;;;;;;137340;1275;22186;-77
2023/04/27 02:57:14;;;;;;;69.40;19.30;;;;;;;;;;137091;1275;22301;-78
2023/04/27 03:00:15;;;;;;;55.90;26.80;;;;;;;;;;136903;1275;22189;-78
2023/04/27 03:03:16;;;;;;;282.90;29.70;;;;;;;;;;137187;1276;23024;-78
2023/04/27 03:06:17;;;;;;;28.40;12.30;;;;;;;;;;136904;1276;22225;-77
2023/04/27 03:09:18;;;;;;;24.10;11.20;;;;;;;;;;136981;1276;22567;-78
2023/04/27 03:12:19;;;;;;;217.90;21.20;;;;;;;;;;137326;1275;22246;-80
2023/04/27 03:15:21;;;;;;;34.40;12.10;;;;;;;;;;137159;1276;22206;-78
2023/04/27 03:18:22;;;;;;;21.40;10.30;;;;;;;;;;137026;1275;22208;-78
2023/04/27 03:21:27;;;;;;;23.10;11.00;;;;;;;;;;136978;1275;22508;-79
2023/04/27 03:24:28;;;;;;;18.20;9.90;;;;;;;;;;137159;1272;22990;-80
2023/04/27 03:27:29;;;;;;;1567.90;136.70;;;;;;;;;;137012;1276;22196;-82
2023/04/27 03:30:30;;;;;;;134.60;18.80;;;;;;;;;;137171;1276;22272;-79
2023/04/27 03:33:31;;;;;;;107.90;16.90;;;;;;;;;;137491;1276;22330;-80
2023/04/27 03:36:32;;;;;;;26.80;10.30;;;;;;;;;;137065;1270;22914;-80
2023/04/27 03:39:33;;;;;;;60.90;13.40;;;;;;;;;;137237;1276;22681;-79
2023/04/27 03:42:34;;;;;;;184.70;19.80;;;;;;;;;;137174;1276;22537;-80
2023/04/27 03:45:35;;;;;;;40.60;10.90;;;;;;;;;;137138;1275;22464;-81
2023/04/27 03:48:36;;;;;;;29.80;10.40;;;;;;;;;;136975;1276;22783;-83
2023/04/27 03:51:41;;;;;;;58.30;11.60;;;;;;;;;;137129;1276;25014;-81
2023/04/27 03:54:42;;;;;;;17.80;10.50;;;;;;;;;;137385;1276;22457;-81
2023/04/27 03:57:43;;;;;;;138.20;16.60;;;;;;;;;;137118;1276;22347;-78
2023/04/27 04:00:44;;;;;;;128.70;15.00;;;;;;;;;;137136;1269;22207;-80
2023/04/27 04:03:46;;;;;;;81.80;12.30;;;;;;;;;;137331;1276;22283;-81
2023/04/27 04:06:47;;;;;;;39.70;17.10;;;;;;;;;;137148;1276;22451;-81
2023/04/27 04:09:48;;;;;;;43.30;11.60;;;;;;;;;;137089;1276;22417;-80
2023/04/27 04:12:50;;;;;;;75.00;12.80;;;;;;;;;;137370;1276;22235;-81
2023/04/27 04:15:51;;;;;;;25.50;10.20;;;;;;;;;;137517;1276;22373;-80
2023/04/27 04:18:52;;;;;;;22.90;11.60;;;;;;;;;;137529;1276;22227;-80
2023/04/27 04:21:53;;;;;;;20.20;9.70;;;;;;;;;;137352;1275;22265;-80
2023/04/27 04:24:54;;;;;;;50.90;12.10;;;;;;;;;;137281;1276;22193;-80
2023/04/27 04:27:55;;;;;;;193.60;19.10;;;;;;;;;;137255;1276;22210;-80
2023/04/27 04:30:57;;;;;;;30.10;11.60;;;;;;;;;;137276;1276;22212;-80
2023/04/27 04:33:58;;;;;;;39.50;13.00;;;;;;;;;;137300;1276;22276;-80
2023/04/27 04:37:00;;;;;;;38.80;14.00;;;;;;;;;;137332;1276;22282;-79
2023/04/27 04:40:07;;;;;;;51.50;12.90;;;;;;;;;;137314;1275;22249;-82
2023/04/27 04:43:08;;;;;;;99.90;49.30;;;;;;;;;;137300;1276;22349;-80
2023/04/27 04:46:09;;;;;;;160.20;29.70;;;;;;;;;;137322;1275;22210;-81
2023/04/27 04:49:10;;;;;;;51.30;19.30;;;;;;;;;;137364;1264;22205;-81
2023/04/27 04:52:11;;;;;;;41.30;16.50;;;;;;;;;;137269;1276;22311;-80
2023/04/27 04:55:13;;;;;;;34.80;15.60;;;;;;;;;;137049;1275;22218;-81
2023/04/27 04:58:14;;;;;;;27.90;14.20;;;;;;;;;;137250;1276;22330;-80
2023/04/27 05:01:17;;;;;;;23.70;11.80;;;;;;;;;;137324;1275;22406;-80
2023/04/27 05:04:18;;;;;;;29.30;14.10;;;;;;;;;;137246;1275;22217;-81
2023/04/27 05:07:19;;;;;;;48.20;28.50;;;;;;;;;;137725;1271;22315;-81
2023/04/27 05:10:20;;;;;;;24.80;13.20;;;;;;;;;;137779;1271;22339;-80
2023/04/27 05:13:23;;;;;;;24.20;11.90;;;;;;;;;;137742;1271;22196;-82
2023/04/27 05:16:25;;;;;;;26.60;12.80;;;;;;;;;;137767;1271;22391;-80
2023/04/27 05:19:26;;;;;;;23.10;11.40;;;;;;;;;;137768;1257;22839;-80
2023/04/27 05:22:27;;;;;;;23.60;12.80;;;;;;;;;;137751;1271;22110;-81
2023/04/27 05:25:28;;;;;;;23.50;11.40;;;;;;;;;;137714;1271;22236;-80
2023/04/27 05:28:29;;;;;;;21.40;11.50;;;;;;;;;;137790;1271;22744;-80
2023/04/27 05:31:30;;;;;;;19.30;11.30;;;;;;;;;;137768;1271;22175;-82
2023/04/27 05:34:35;;;;;;;125.30;17.20;;;;;;;;;;137760;1271;22237;-83
2023/04/27 05:37:36;;;;;;;18.40;9.50;;;;;;;;;;137755;1257;22225;-81
2023/04/27 05:40:37;;;;;;;20.10;10.50;;;;;;;;;;137737;1257;22263;-82
2023/04/27 05:43:38;;;;;;;16.10;9.30;;;;;;;;;;137782;1271;22195;-82
2023/04/27 05:46:39;;;;;;;18.00;10.10;;;;;;;;;;137770;1271;22251;-82
2023/04/27 05:49:40;;;;;;;16.80;10.40;;;;;;;;;;137593;1271;22516;-82
2023/04/27 05:52:41;;;;;;;20.20;9.80;;;;;;;;;;137791;1271;22263;-81
2023/04/27 05:55:42;;;;;;;22.70;10.00;;;;;;;;;;137770;1271;22692;-82
2023/04/27 05:58:44;;;;;;;21.70;9.40;;;;;;;;;;137525;1271;22403;-83
2023/04/27 06:01:45;;;;;;;31.00;9.90;;;;;;;;;;137693;1271;22550;-82
2023/04/27 06:04:46;;;;;;;16.10;8.80;;;;;;;;;;137485;1271;22398;-80
2023/04/27 06:07:47;;;;;;;17.60;8.60;;;;;;;;;;137761;1269;22740;-81
2023/04/27 06:10:49;;;;;;;19.20;8.10;;;;;;;;;;137761;1264;22301;-81
2023/04/27 06:13:50;;;;;;;24.40;8.20;;;;;;;;;;137801;1271;22616;-81
2023/04/27 06:16:52;;;;;;;17.30;7.80;;;;;;;;;;137590;1271;22505;-82
2023/04/27 06:19:53;;;;;;;17.20;9.50;;;;;;;;;;137804;1271;22243;-80
2023/04/27 06:22:54;;;;;;;16.80;8.40;;;;;;;;;;137763;1271;22167;-81
2023/04/27 06:25:55;;;;;;;18.30;7.30;;;;;;;;;;137723;1271;22393;-81
2023/04/27 06:28:56;;;;;;;18.90;7.80;;;;;;;;;;137755;1271;22284;-81
2023/04/27 06:31:57;;;;;;;12.30;7.70;;;;;;;;;;137719;1271;22201;-81
2023/04/27 06:34:59;;;;;;;16.80;7.80;;;;;;;;;;137820;1271;22241;-81
2023/04/27 06:38:00;;;;;;;16.70;7.80;;;;;;;;;;137836;1271;22261;-80
2023/04/27 06:41:01;;;;;;;14.40;6.50;;;;;;;;;;137594;1271;22548;-80
2023/04/27 06:44:03;;;;;;;13.70;7.00;;;;;;;;;;137701;1271;22482;-80
2023/04/27 06:47:04;;;;;;;14.30;7.70;;;;;;;;;;137676;1271;22254;-81
2023/04/27 06:50:05;;;;;;;14.20;6.70;;;;;;;;;;137794;1271;22741;-80
2023/04/27 06:53:06;;;;;;;15.90;7.20;;;;;;;;;;137715;1271;22400;-80
2023/04/27 06:56:07;;;;;;;18.60;6.70;;;;;;;;;;137867;1271;22215;-82
2023/04/27 06:59:08;;;;;;;13.10;6.40;;;;;;;;;;137323;1271;22583;-80
2023/04/27 07:02:10;;;;;;;11.70;5.60;;;;;;;;;;137835;1271;22813;-82
2023/04/27 07:05:13;;;;;;;14.70;6.50;;;;;;;;;;137651;1271;22233;-82
2023/04/27 07:08:15;;;;;;;10.20;5.40;;;;;;;;;;137641;1271;22318;-81
2023/04/27 07:11:16;;;;;;;17.70;5.40;;;;;;;;;;137757;1271;22674;-80
2023/04/27 07:14:17;;;;;;;12.30;5.60;;;;;;;;;;137539;1271;22243;-82
2023/04/27 07:17:18;;;;;;;10.50;5.00;;;;;;;;;;137622;1265;22264;-82
2023/04/27 07:20:19;;;;;;;11.50;4.90;;;;;;;;;;137801;1271;22305;-82
2023/04/27 07:23:20;;;;;;;10.40;4.70;;;;;;;;;;137773;1271;22384;-82
2023/04/27 07:26:23;;;;;;;11.60;5.10;;;;;;;;;;137630;1271;22243;-82
2023/04/27 07:29:26;;;;;;;9.00;4.50;;;;;;;;;;137752;1271;22581;-81
2023/04/27 07:32:28;;;;;;;1999.90;651.50;;;;;;;;;;137791;1271;22257;-82
2023/04/27 07:35:29;;;;;;;42.40;11.30;;;;;;;;;;137790;1271;22224;-82
2023/04/27 07:38:30;;;;;;;13.10;5.10;;;;;;;;;;137708;1271;22219;-82
2023/04/27 07:41:33;;;;;;;9.60;4.20;;;;;;;;;;137728;1271;22583;-83
2023/04/27 07:44:35;;;;;;;7.60;4.30;;;;;;;;;;137777;1271;22237;-81
2023/04/27 07:47:36;;;;;;;6.80;4.50;;;;;;;;;;137773;1271;22218;-81
2023/04/27 07:50:37;;;;;;;11.40;4.20;;;;;;;;;;137753;1271;22286;-81
2023/04/27 07:53:38;;;;;;;7.30;4.70;;;;;;;;;;137803;1271;22520;-80
2023/04/27 07:56:39;;;;;;;7.50;4.10;;;;;;;;;;137793;1271;22362;-82
2023/04/27 07:59:41;;;;;;;60.60;7.70;;;;;;;;;;137826;1271;22285;-80
2023/04/27 08:02:42;;;;;;;11.90;4.00;;;;;;;;;;137771;1271;22268;-80
2023/04/27 08:05:43;;;;;;;11.50;4.80;;;;;;;;;;137733;1271;22627;-81
2023/04/27 08:08:44;;;;;;;7.60;3.90;;;;;;;;;;137728;1271;22135;-80
2023/04/27 08:11:45;;;;;;;10.10;4.60;;;;;;;;;;137800;1271;22336;-82
2023/04/27 08:14:46;;;;;;;12.70;4.50;;;;;;;;;;137806;1271;22230;-82
2023/04/27 08:17:47;;;;;;;10.50;5.00;;;;;;;;;;137771;1271;22719;-81
2023/04/27 08:20:48;;;;;;;12.40;5.40;;;;;;;;;;137757;1271;22162;-82
2023/04/27 08:23:50;;;;;;;12.70;6.10;;;;;;;;;;137779;1265;22224;-80
2023/04/27 08:26:51;;;;;;;7.00;4.20;;;;;;;;;;137798;1271;22284;-81
2023/04/27 08:29:52;;;;;;;18.10;5.10;;;;;;;;;;137729;1271;23146;-82
2023/04/27 08:32:54;;;;;;;11.60;4.20;;;;;;;;;;137708;1271;22229;-81
2023/04/27 08:35:55;;;;;;;11.10;5.00;;;;;;;;;;137757;1271;22651;-82
2023/04/27 08:38:56;;;;;;;12.70;4.90;;;;;;;;;;137773;1271;22368;-81
2023/04/27 08:41:57;;;;;;;12.90;4.50;;;;;;;;;;137792;1271;22256;-79
2023/04/27 08:44:59;;;;;;;13.10;5.80;;;;;;;;;;137737;1271;22301;-81
2023/04/27 08:48:00;;;;;;;10.80;5.50;;;;;;;;;;137751;1271;23097;-80
2023/04/27 08:51:01;;;;;;;5.00;3.60;;;;;;;;;;137777;1271;22257;-81
2023/04/27 08:54:02;;;;;;;8.00;4.80;;;;;;;;;;137746;1271;22264;-79
2023/04/27 08:57:04;;;;;;;10.50;4.80;;;;;;;;;;137774;1271;22530;-80
2023/04/27 09:00:11;;;;;;;10.20;4.40;;;;;;;;;;137741;1271;22190;-80
2023/04/27 09:03:12;;;;;;;14.10;5.20;;;;;;;;;;137779;1271;22635;-79
2023/04/27 09:06:13;;;;;;;9.30;3.70;;;;;;;;;;137323;1263;22688;-78
2023/04/27 09:09:14;;;;;;;7.40;4.10;;;;;;;;;;137782;1271;22184;-82
2023/04/27 09:12:16;;;;;;;10.70;4.60;;;;;;;;;;137835;1271;22215;-81
2023/04/27 09:15:17;;;;;;;7.00;3.70;;;;;;;;;;137798;1271;22243;-79
2023/04/27 09:18:18;;;;;;;7.60;3.80;;;;;;;;;;137777;1271;22534;-79
2023/04/27 09:21:19;;;;;;;9.40;3.70;;;;;;;;;;137800;1271;22793;-79
2023/04/27 09:24:20;;;;;;;8.90;4.40;;;;;;;;;;137452;1271;22707;-81
2023/04/27 09:27:22;;;;;;;14.70;7.20;;;;;;;;;;137545;1248;22553;-79
2023/04/27 09:30:23;;;;;;;10.10;5.70;;;;;;;;;;137227;1257;22272;-79
2023/04/27 09:33:24;;;;;;;13.20;5.00;;;;;;;;;;137429;1271;22283;-80
2023/04/27 09:36:25;;;;;;;26.80;14.60;;;;;;;;;;137842;1271;22230;-79
2023/04/27 09:39:27;;;;;;;18.40;10.70;;;;;;;;;;137819;1271;22658;-80
2023/04/27 09:42:28;;;;;;;14.20;7.20;;;;;;;;;;137786;1271;22840;-80
2023/04/27 09:45:29;;;;;;;9.40;5.40;;;;;;;;;;137809;1271;22725;-79
2023/04/27 09:48:30;;;;;;;9.40;4.90;;;;;;;;;;137758;1271;22225;-80
2023/04/27 09:51:31;;;;;;;9.10;5.20;;;;;;;;;;137624;1271;22098;-79
2023/04/27 09:54:32;;;;;;;8.60;5.00;;;;;;;;;;137696;1271;22458;-80
2023/04/27 09:57:33;;;;;;;6.00;4.30;;;;;;;;;;137789;1271;22541;-80
2023/04/27 10:00:34;;;;;;;10.50;5.50;;;;;;;;;;137750;1271;22326;-79
2023/04/27 10:03:35;;;;;;;7.50;3.60;;;;;;;;;;137773;1271;22248;-79
2023/04/27 10:06:36;;;;;;;11.40;5.00;;;;;;;;;;137526;1271;26739;-79
2023/04/27 10:09:37;;;;;;;7.20;4.90;;;;;;;;;;137669;1271;22236;-80
2023/04/27 10:12:39;;;;;;;8.90;4.60;;;;;;;;;;137776;1271;22183;-80
2023/04/27 10:15:40;;;;;;;13.30;5.50;;;;;;;;;;137363;1271;22220;-79
2023/04/27 10:18:41;;;;;;;10.60;5.00;;;;;;;;;;137781;1271;22337;-79
2023/04/27 10:21:42;;;;;;;8.20;5.00;;;;;;;;;;137293;1271;22666;-81
2023/04/27 10:24:43;;;;;;;8.60;5.20;;;;;;;;;;137334;1271;22614;-80
2023/04/27 10:27:45;;;;;;;9.20;5.40;;;;;;;;;;137793;1271;22408;-80
2023/04/27 10:30:47;;;;;;;13.70;6.10;;;;;;;;;;137773;1260;22200;-81
2023/04/27 10:33:48;;;;;;;10.70;5.10;;;;;;;;;;137351;1271;22218;-80
2023/04/27 10:36:49;;;;;;;11.60;5.50;;;;;;;;;;137804;1271;22436;-79
2023/04/27 10:39:51;;;;;;;10.60;5.30;;;;;;;;;;137474;1271;22863;-80
2023/04/27 10:42:52;;;;;;;12.10;5.20;;;;;;;;;;137393;1271;22218;-80
2023/04/27 10:45:54;;;;;;;10.70;5.70;;;;;;;;;;137578;1271;22543;-81
2023/04/27 10:48:58;;;;;;;8.00;4.10;;;;;;;;;;137487;1268;25425;-81
2023/04/27 10:51:59;;;;;;;12.30;6.10;;;;;;;;;;137822;1271;22302;-80
2023/04/27 10:55:00;;;;;;;13.60;6.70;;;;;;;;;;137808;1271;22148;-79
2023/04/27 10:58:03;;;;;;;8.40;5.00;;;;;;;;;;137781;1271;22196;-78
2023/04/27 11:01:04;;;;;;;10.50;4.50;;;;;;;;;;137351;1271;22226;-80
2023/04/27 11:04:05;;;;;;;6.70;4.30;;;;;;;;;;137787;1271;22344;-79
2023/04/27 11:07:07;;;;;;;8.50;4.70;;;;;;;;;;137762;1271;22193;-79
2023/04/27 11:10:08;;;;;;;6.50;4.50;;;;;;;;;;137421;1271;22535;-79
2023/04/27 11:13:10;;;;;;;9.90;4.50;;;;;;;;;;137433;1271;22915;-80
2023/04/27 11:16:11;;;;;;;8.40;5.10;;;;;;;;;;137808;1271;22213;-81
2023/04/27 11:19:12;;;;;;;12.40;4.80;;;;;;;;;;137834;1271;22700;-80
2023/04/27 11:22:15;;;;;;;9.60;5.00;;;;;;;;;;137408;1271;22429;-80
2023/04/27 11:25:16;;;;;;;9.00;4.80;;;;;;;;;;137787;1271;22282;-79
2023/04/27 11:28:17;;;;;;;8.80;4.10;;;;;;;;;;137775;1271;22675;-80
2023/04/27 11:31:19;;;;;;;8.50;3.80;;;;;;;;;;137757;1271;22562;-80
2023/04/27 11:34:20;;;;;;;13.30;4.70;;;;;;;;;;137710;1271;22271;-80
2023/04/27 11:37:24;;;;;;;9.80;5.00;;;;;;;;;;137659;1271;22300;-81
2023/04/27 11:40:27;;;;;;;10.60;4.20;;;;;;;;;;137698;1266;22266;-80
2023/04/27 11:43:28;;;;;;;9.10;4.50;;;;;;;;;;137744;1271;22345;-80
2023/04/27 11:46:29;;;;;;;10.90;4.00;;;;;;;;;;137775;1271;22258;-80
2023/04/27 11:49:30;;;;;;;9.40;4.40;;;;;;;;;;137779;1271;22343;-80
2023/04/27 11:52:31;;;;;;;6.00;3.50;;;;;;;;;;137343;1271;22680;-81
2023/04/27 11:55:32;;;;;;;7.10;3.50;;;;;;;;;;137735;1271;22408;-80
2023/04/27 11:58:34;;;;;;;8.30;3.50;;;;;;;;;;137259;1271;22409;-81
2023/04/27 12:01:38;;;;;;;4.80;3.30;;;;;;;;;;137564;1271;22430;-80
2023/04/27 12:04:39;;;;;;;5.60;3.50;;;;;;;;;;137804;1271;22245;-81
2023/04/27 12:07:42;;;;;;;5.20;3.40;;;;;;;;;;137510;1271;22422;-81
2023/04/27 12:10:43;;;;;;;4.60;2.80;;;;;;;;;;137483;1271;22438;-81
2023/04/27 12:13:45;;;;;;;4.60;3.00;;;;;;;;;;137778;1271;23138;-79
2023/04/27 12:16:47;;;;;;;8.30;3.50;;;;;;;;;;137762;1271;22213;-80
2023/04/27 12:19:48;;;;;;;7.90;3.30;;;;;;;;;;137812;1271;22240;-80
2023/04/27 12:22:49;;;;;;;4.60;2.60;;;;;;;;;;137812;1271;22253;-79
2023/04/27 12:25:50;;;;;;;5.90;3.10;;;;;;;;;;137782;1271;22211;-80
2023/04/27 12:28:51;;;;;;;20.70;3.70;;;;;;;;;;137705;1266;199400;-81
2023/04/27 12:31:52;;;;;;;4.60;3.10;;;;;;;;;;137792;1271;22261;-78
2023/04/27 12:34:53;;;;;;;7.90;3.50;;;;;;;;;;137724;1263;22221;-82
2023/04/27 12:37:54;;;;;;;12.80;4.60;;;;;;;;;;137601;1271;22392;-80
2023/04/27 12:40:55;;;;;;;19.50;4.60;;;;;;;;;;137730;1271;22313;-81
2023/04/27 12:43:56;;;;;;;8.70;4.50;;;;;;;;;;137744;1271;22242;-80
2023/04/27 12:46:57;;;;;;;7.00;4.30;;;;;;;;;;137784;1271;22182;-82
2023/04/27 12:49:58;;;;;;;9.60;4.80;;;;;;;;;;137811;1271;22337;-82
2023/04/27 12:52:59;;;;;;;10.40;4.70;;;;;;;;;;137828;1271;22658;-80
2023/04/27 12:56:04;;;;;;;9.40;4.60;;;;;;;;;;137792;1271;22312;-80
2023/04/27 12:59:05;;;;;;;5.90;4.20;;;;;;;;;;137813;1269;22211;-80
2023/04/27 13:02:06;;;;;;;7.80;4.70;;;;;;;;;;137441;1271;22533;-80
2023/04/27 13:05:10;;;;;;;8.10;4.60;;;;;;;;;;137548;1271;22540;-81
2023/04/27 13:08:11;;;;;;;6.50;4.50;;;;;;;;;;137226;1271;22311;-81
2023/04/27 13:11:13;;;;;;;8.30;4.30;;;;;;;;;;137698;1271;22587;-79
2023/04/27 13:14:14;;;;;;;6.10;4.40;;;;;;;;;;137780;1271;22213;-81
2023/04/27 13:17:16;;;;;;;8.20;4.00;;;;;;;;;;137502;1271;22223;-80
2023/04/27 13:20:17;;;;;;;5.90;4.10;;;;;;;;;;137795;1271;22262;-82
2023/04/27 13:23:18;;;;;;;6.70;3.90;;;;;;;;;;137733;1271;22637;-81
2023/04/27 13:26:19;;;;;;;7.40;3.90;;;;;;;;;;137718;1271;22279;-80
2023/04/27 13:29:20;;;;;;;7.40;4.00;;;;;;;;;;137743;1271;22804;-80
2023/04/27 13:32:21;;;;;;;3.90;3.40;;;;;;;;;;137766;1271;22306;-77
2023/04/27 13:35:23;;;;;;;11.00;4.90;;;;;;;;;;137760;1271;22224;-80
2023/04/27 13:38:24;;;;;;;11.30;4.70;;;;;;;;;;137375;1271;22263;-80
2023/04/27 13:41:26;;;;;;;7.60;5.40;;;;;;;;;;137576;1271;22531;-82
2023/04/27 13:44:27;;;;;;;10.60;5.20;;;;;;;;;;137731;1271;22247;-80
2023/04/27 13:47:35;;;;;;;10.10;4.10;;;;;;;;;;137821;1271;22302;-80
2023/04/27 13:50:36;;;;;;;5.90;3.90;;;;;;;;;;137525;1271;22517;-79
2023/04/27 13:53:37;;;;;;;9.00;5.30;;;;;;;;;;137775;1271;22348;-81
2023/04/27 13:56:38;;;;;;;7.40;5.00;;;;;;;;;;137713;1271;22284;-81
2023/04/27 13:59:39;;;;;;;7.40;4.80;;;;;;;;;;137455;1271;22252;-81
2023/04/27 14:02:40;;;;;;;8.60;4.80;;;;;;;;;;137810;1271;22239;-80
2023/04/27 14:05:41;;;;;;;8.40;4.90;;;;;;;;;;137462;1271;22275;-77
2023/04/27 14:08:43;;;;;;;8.60;4.50;;;;;;;;;;137271;1271;22893;-80
2023/04/27 14:11:44;;;;;;;6.00;4.30;;;;;;;;;;137611;1271;22525;-79
2023/04/27 14:14:45;;;;;;;19.90;5.30;;;;;;;;;;137481;1271;22306;-79
2023/04/27 14:17:46;;;;;;;6.40;4.40;;;;;;;;;;137286;1271;22225;-79
2023/04/27 14:20:47;;;;;;;10.40;4.60;;;;;;;;;;137776;1271;22109;-79
2023/04/27 14:23:48;;;;;;;9.80;4.30;;;;;;;;;;137761;1271;22273;-80
2023/04/27 14:26:50;;;;;;;6.90;4.60;;;;;;;;;;136784;1271;22552;-79
2023/04/27 14:29:51;;;;;;;13.60;6.30;;;;;;;;;;137006;1271;22202;-81
2023/04/27 14:32:52;;;;;;;9.10;5.10;;;;;;;;;;136907;1271;22247;-80
2023/04/27 14:35:53;;;;;;;9.30;4.60;;;;;;;;;;137551;1272;22524;-81
2023/04/27 14:38:54;;;;;;;7.10;4.60;;;;;;;;;;137378;1271;22198;-80
2023/04/27 14:41:56;;;;;;;11.40;5.30;;;;;;;;;;137218;1271;22404;-80
2023/04/27 14:44:57;;;;;;;8.10;3.50;;;;;;;;;;137415;1271;22665;-80
2023/04/27 14:47:58;;;;;;;8.20;4.40;;;;;;;;;;137639;1271;22274;-81
2023/04/27 14:50:59;;;;;;;5.90;3.90;;;;;;;;;;137068;1271;22303;-81
2023/04/27 14:54:01;;;;;;;8.20;3.60;;;;;;;;;;137241;1271;22893;-80
2023/04/27 14:57:02;;;;;;;5.30;3.30;;;;;;;;;;137807;1271;22348;-81
2023/04/27 15:00:08;;;;;;;8.10;4.80;;;;;;;;;;137466;1271;22235;-80
2023/04/27 15:03:09;;;;;;;11.10;4.10;;;;;;;;;;137008;1271;24151;-78
2023/04/27 15:06:10;;;;;;;7.80;3.90;;;;;;;;;;137615;1271;22290;-80
2023/04/27 15:09:12;;;;;;;6.80;4.30;;;;;;;;;;137163;1271;22209;-80
2023/04/27 15:12:13;;;;;;;9.40;4.50;;;;;;;;;;137483;1271;22847;-80
2023/04/27 15:15:14;;;;;;;9.70;3.30;;;;;;;;;;137675;1271;22527;-79
2023/04/27 15:18:15;;;;;;;348.30;30.60;;;;;;;;;;137100;1248;22149;-79
2023/04/27 15:21:16;;;;;;;6.80;4.30;;;;;;;;;;137404;1271;22208;-79
2023/04/27 15:24:17;;;;;;;9.00;4.10;;;;;;;;;;137388;1271;22570;-79
2023/04/27 15:27:18;;;;;;;8.80;4.40;;;;;;;;;;137145;1271;22179;-79
2023/04/27 15:30:19;;;;;;;9.10;4.20;;;;;;;;;;137307;1271;22544;-80
2023/04/27 15:33:20;;;;;;;16.10;7.60;;;;;;;;;;137411;1271;22913;-82
2023/04/27 15:36:22;;;;;;;7.10;4.80;;;;;;;;;;137498;1271;22242;-80
2023/04/27 15:39:23;;;;;;;7.50;3.40;;;;;;;;;;136573;1271;22533;-82
2023/04/27 15:42:24;;;;;;;4.30;2.80;;;;;;;;;;137172;1271;22253;-79
2023/04/27 15:45:25;;;;;;;4.60;3.00;;;;;;;;;;137090;1271;22193;-79
2023/04/27 15:48:26;;;;;;;5.40;2.60;;;;;;;;;;137519;1271;22521;-80
2023/04/27 15:51:27;;;;;;;3.70;2.50;;;;;;;;;;137173;1271;22783;-80
2023/04/27 15:54:28;;;;;;;6.00;3.40;;;;;;;;;;137084;1271;22265;-80
2023/04/27 15:57:29;;;;;;;10.10;3.40;;;;;;;;;;137530;1271;22540;-79
2023/04/27 16:00:30;;;;;;;16.20;7.80;;;;;;;;;;137487;1271;22232;-79
2023/04/27 16:03:33;;;;;;;7.80;4.30;;;;;;;;;;137538;1272;22233;-79
2023/04/27 16:06:37;;;;;;;11.30;7.30;;;;;;;;;;137415;1271;22536;-80
2023/04/27 16:09:38;;;;;;;9.80;3.80;;;;;;;;;;137275;1271;22394;-79
2023/04/27 16:12:39;;;;;;;7.60;3.80;;;;;;;;;;137162;1266;22231;-79
2023/04/27 16:15:40;;;;;;;7.30;2.70;;;;;;;;;;137602;1271;22552;-79
2023/04/27 16:18:41;;;;;;;7.10;2.80;;;;;;;;;;137319;1271;22527;-79
2023/04/27 16:21:43;;;;;;;8.70;3.40;;;;;;;;;;137472;1272;22368;-79
2023/04/27 16:24:45;;;;;;;9.30;3.20;;;;;;;;;;137198;1271;22543;-79
2023/04/27 16:27:47;;;;;;;7.80;3.70;;;;;;;;;;137719;1271;22386;-78
2023/04/27 16:30:48;;;;;;;8.80;3.60;;;;;;;;;;135866;1271;25339;-80
2023/04/27 16:33:49;;;;;;;7.50;4.80;;;;;;;;;;136990;1271;22208;-79
2023/04/27 16:36:51;;;;;;;9.70;5.10;;;;;;;;;;137813;1272;22080;-80
2023/04/27 16:39:52;;;;;;;9.00;5.40;;;;;;;;;;137726;1271;22555;-79
2023/04/27 16:42:54;;;;;;;8.60;5.60;;;;;;;;;;137047;1271;23037;-79
2023/04/27 16:45:55;;;;;;;6.80;4.40;;;;;;;;;;137083;1271;22551;-80
2023/04/27 16:48:56;;;;;;;7.90;3.80;;;;;;;;;;137400;1271;22237;-79
2023/04/27 16:51:57;;;;;;;55.90;6.30;;;;;;;;;;136297;1271;22698;-79
2023/04/27 16:54:58;;;;;;;11.00;3.80;;;;;;;;;;136926;1272;22537;-79
2023/04/27 16:58:02;;;;;;;12.00;4.10;;;;;;;;;;137695;1271;22305;-79
2023/04/27 17:01:03;;;;;;;9.70;4.30;;;;;;;;;;137301;1271;22231;-81
2023/04/27 17:04:04;;;;;;;15.10;6.30;;;;;;;;;;137256;1271;22559;-80
2023/04/27 17:07:06;;;;;;;11.30;4.20;;;;;;;;;;137476;1271;22559;-80
2023/04/27 17:10:08;;;;;;;7.70;4.10;;;;;;;;;;136906;1272;22272;-80
2023/04/27 17:13:09;;;;;;;7.90;4.10;;;;;;;;;;137049;1271;22781;-80
2023/04/27 17:16:12;;;;;;;7.00;3.90;;;;;;;;;;137642;1272;22269;-80
2023/04/27 17:19:14;;;;;;;7.90;4.10;;;;;;;;;;137344;1271;22201;-80
2023/04/27 17:22:15;;;;;;;12.30;6.70;;;;;;;;;;137108;1272;22220;-80
2023/04/27 17:25:16;;;;;;;13.70;8.60;;;;;;;;;;137840;1271;22274;-79
2023/04/27 17:28:17;;;;;;;34.10;9.40;;;;;;;;;;137529;1271;22190;-80
2023/04/27 17:31:19;;;;;;;16.40;7.60;;;;;;;;;;137186;1271;22179;-78
2023/04/27 17:34:20;;;;;;;13.50;6.50;;;;;;;;;;137677;1271;22551;-80
2023/04/27 17:37:21;;;;;;;201.80;17.50;;;;;;;;;;137510;1271;22238;-80